sensor_id;sensor_type;location;lat;lon;timestamp;pressure;altitude;pressure_sealevel;temperature;humidity
12666;BME280;58531;59.050;17.416;2023-06-04T00:00:16;101107.94;;;13.73;53.56
12666;BME280;58531;59.050;17.416;2023-06-04T00:02:43;101105.28;;;13.82;53.55
12666;BME280;58531;59.050;17.416;2023-06-04T00:05:10;101109.78;;;13.85;52.98
12666;BME280;58531;59.050;17.416;2023-06-04T00:07:38;101100.84;;;13.97;53.02
12666;BME280;58531;59.050;17.416;2023-06-04T00:10:06;101105.16;;;13.94;52.98
12666;BME280;58531;59.050;17.416;2023-06-04T00:12:33;101097.25;;;14.09;51.69
12666;BME280;58531;59.050;17.416;2023-06-04T00:15:00;101108.00;;;14.09;52.43
12666;BME280;58531;59.050;17.416;2023-06-04T00:17:27;101111.28;;;14.04;52.92
12666;BME280;58531;59.050;17.416;2023-06-04T00:19:54;101110.69;;;14.00;53.55
12666;BME280;58531;59.050;17.416;2023-06-04T00:22:21;101116.66;;;13.95;54.92
12666;BME280;58531;59.050;17.416;2023-06-04T00:24:50;101106.94;;;13.97;55.22
12666;BME280;58531;59.050;17.416;2023-06-04T00:27:17;101110.69;;;13.91;55.13
12666;BME280;58531;59.050;17.416;2023-06-04T00:29:44;101113.38;;;13.91;55.33
12666;BME280;58531;59.050;17.416;2023-06-04T00:32:11;101105.00;;;13.89;55.08
12666;BME280;58531;59.050;17.416;2023-06-04T00:34:37;101106.03;;;13.91;54.95
12666;BME280;58531;59.050;17.416;2023-06-04T00:37:05;101112.16;;;13.83;56.28
12666;BME280;58531;59.050;17.416;2023-06-04T00:39:32;101116.16;;;13.78;55.98
12666;BME280;58531;59.050;17.416;2023-06-04T00:42:01;101113.91;;;13.77;56.95
12666;BME280;58531;59.050;17.416;2023-06-04T00:44:28;101118.09;;;13.78;56.75
12666;BME280;58531;59.050;17.416;2023-06-04T00:46:56;101120.63;;;13.81;56.49
12666;BME280;58531;59.050;17.416;2023-06-04T00:49:23;101114.84;;;13.92;56.26
12666;BME280;58531;59.050;17.416;2023-06-04T00:51:50;101109.63;;;13.88;56.74
12666;BME280;58531;59.050;17.416;2023-06-04T00:54:19;101114.53;;;13.81;57.25
12666;BME280;58531;59.050;17.416;2023-06-04T00:56:47;101117.22;;;13.81;57.91
12666;BME280;58531;59.050;17.416;2023-06-04T00:59:15;101120.50;;;13.85;57.45
12666;BME280;58531;59.050;17.416;2023-06-04T01:01:48;101117.78;;;13.76;58.59
12666;BME280;58531;59.050;17.416;2023-06-04T01:04:32;101123.78;;;13.80;57.32
12666;BME280;58531;59.050;17.416;2023-06-04T01:07:03;101115.41;;;13.78;58.02
12666;BME280;58531;59.050;17.416;2023-06-04T01:09:31;101123.75;;;13.71;58.40
12666;BME280;58531;59.050;17.416;2023-06-04T01:11:58;101116.44;;;13.71;59.05
12666;BME280;58531;59.050;17.416;2023-06-04T01:14:28;101135.97;;;13.72;59.38
12666;BME280;58531;59.050;17.416;2023-06-04T01:16:59;101132.06;;;13.64;60.11
12666;BME280;58531;59.050;17.416;2023-06-04T01:22:42;101154.47;;;13.39;64.58
12666;BME280;58531;59.050;17.416;2023-06-04T01:25:13;101162.00;;;13.23;67.40
12666;BME280;58531;59.050;17.416;2023-06-04T01:27:47;101169.25;;;13.13;68.79
12666;BME280;58531;59.050;17.416;2023-06-04T01:30:17;101172.31;;;13.03;70.22
12666;BME280;58531;59.050;17.416;2023-06-04T01:32:44;101171.94;;;12.92;72.72
12666;BME280;58531;59.050;17.416;2023-06-04T01:35:12;101176.91;;;12.81;74.59
12666;BME280;58531;59.050;17.416;2023-06-04T01:37:39;101185.19;;;12.74;75.46
12666;BME280;58531;59.050;17.416;2023-06-04T01:40:07;101183.38;;;12.71;75.80
12666;BME280;58531;59.050;17.416;2023-06-04T01:42:34;101183.84;;;12.57;75.83
12666;BME280;58531;59.050;17.416;2023-06-04T01:45:02;101176.94;;;12.47;75.13
12666;BME280;58531;59.050;17.416;2023-06-04T01:47:30;101188.75;;;12.37;75.28
12666;BME280;58531;59.050;17.416;2023-06-04T01:49:57;101187.16;;;12.27;75.39
12666;BME280;58531;59.050;17.416;2023-06-04T01:52:24;101197.53;;;12.25;74.90
12666;BME280;58531;59.050;17.416;2023-06-04T01:54:50;101194.78;;;12.16;75.28
12666;BME280;58531;59.050;17.416;2023-06-04T01:57:18;101196.50;;;12.10;74.50
12666;BME280;58531;59.050;17.416;2023-06-04T01:59:46;101201.84;;;12.10;73.39
12666;BME280;58531;59.050;17.416;2023-06-04T02:02:13;101201.31;;;12.03;72.93
12666;BME280;58531;59.050;17.416;2023-06-04T02:04:42;101211.84;;;11.97;72.92
12666;BME280;58531;59.050;17.416;2023-06-04T02:07:11;101212.38;;;11.92;73.28
12666;BME280;58531;59.050;17.416;2023-06-04T02:09:39;101215.91;;;11.89;71.41
12666;BME280;58531;59.050;17.416;2023-06-04T02:12:07;101221.25;;;11.89;71.02
12666;BME280;58531;59.050;17.416;2023-06-04T02:14:34;101218.56;;;11.89;70.35
12666;BME280;58531;59.050;17.416;2023-06-04T02:17:02;101224.03;;;11.86;69.99
12666;BME280;58531;59.050;17.416;2023-06-04T02:19:30;101223.28;;;11.85;69.53
12666;BME280;58531;59.050;17.416;2023-06-04T02:22:00;101219.84;;;11.85;69.09
12666;BME280;58531;59.050;17.416;2023-06-04T02:24:27;101234.84;;;11.82;68.32
12666;BME280;58531;59.050;17.416;2023-06-04T02:26:54;101228.72;;;11.82;68.03
12666;BME280;58531;59.050;17.416;2023-06-04T02:29:20;101229.81;;;11.84;67.64
12666;BME280;58531;59.050;17.416;2023-06-04T02:31:47;101225.63;;;11.83;67.56
12666;BME280;58531;59.050;17.416;2023-06-04T02:34:14;101231.00;;;11.83;67.63
12666;BME280;58531;59.050;17.416;2023-06-04T02:36:41;101231.41;;;11.82;66.47
12666;BME280;58531;59.050;17.416;2023-06-04T02:39:18;101232.16;;;11.82;66.23
12666;BME280;58531;59.050;17.416;2023-06-04T02:41:45;101236.03;;;11.81;65.76
12666;BME280;58531;59.050;17.416;2023-06-04T02:44:12;101238.06;;;11.77;65.51
12666;BME280;58531;59.050;17.416;2023-06-04T02:46:39;101241.13;;;11.76;64.88
12666;BME280;58531;59.050;17.416;2023-06-04T02:49:06;101244.56;;;11.77;65.60
12666;BME280;58531;59.050;17.416;2023-06-04T02:51:32;101239.56;;;11.78;65.71
12666;BME280;58531;59.050;17.416;2023-06-04T02:54:00;101240.59;;;11.81;65.19
12666;BME280;58531;59.050;17.416;2023-06-04T02:56:28;101252.09;;;11.81;65.41
12666;BME280;58531;59.050;17.416;2023-06-04T02:58:56;101243.81;;;11.76;65.19
12666;BME280;58531;59.050;17.416;2023-06-04T03:01:23;101251.09;;;11.76;65.07
12666;BME280;58531;59.050;17.416;2023-06-04T03:03:50;101243.41;;;11.77;65.56
12666;BME280;58531;59.050;17.416;2023-06-04T03:06:18;101242.56;;;11.80;65.07
12666;BME280;58531;59.050;17.416;2023-06-04T03:08:46;101244.91;;;11.78;65.53
12666;BME280;58531;59.050;17.416;2023-06-04T03:11:13;101241.78;;;11.80;64.55
12666;BME280;58531;59.050;17.416;2023-06-04T03:13:41;101239.56;;;11.78;64.43
12666;BME280;58531;59.050;17.416;2023-06-04T03:16:08;101248.75;;;11.77;64.68
12666;BME280;58531;59.050;17.416;2023-06-04T03:18:36;101260.31;;;11.75;64.89
12666;BME280;58531;59.050;17.416;2023-06-04T03:21:03;101245.63;;;11.79;64.91
12666;BME280;58531;59.050;17.416;2023-06-04T03:23:31;101243.50;;;11.74;63.98
12666;BME280;58531;59.050;17.416;2023-06-04T03:25:58;101264.69;;;11.69;64.14
12666;BME280;58531;59.050;17.416;2023-06-04T03:28:25;101258.16;;;11.70;64.03
12666;BME280;58531;59.050;17.416;2023-06-04T03:30:53;101270.38;;;11.71;64.20
12666;BME280;58531;59.050;17.416;2023-06-04T03:33:20;101267.56;;;11.74;64.46
12666;BME280;58531;59.050;17.416;2023-06-04T03:35:47;101266.63;;;11.80;63.43
12666;BME280;58531;59.050;17.416;2023-06-04T03:38:14;101256.56;;;11.84;64.36
12666;BME280;58531;59.050;17.416;2023-06-04T03:40:42;101253.91;;;11.84;63.79
12666;BME280;58531;59.050;17.416;2023-06-04T03:43:09;101258.41;;;11.87;63.85
12666;BME280;58531;59.050;17.416;2023-06-04T03:45:36;101250.38;;;12.00;63.71
12666;BME280;58531;59.050;17.416;2023-06-04T03:48:04;101260.00;;;12.22;62.68
12666;BME280;58531;59.050;17.416;2023-06-04T03:50:31;101273.03;;;12.58;62.88
12666;BME280;58531;59.050;17.416;2023-06-04T03:52:58;101278.66;;;12.97;62.07
12666;BME280;58531;59.050;17.416;2023-06-04T03:55:25;101287.03;;;14.24;57.95
12666;BME280;58531;59.050;17.416;2023-06-04T03:57:52;101275.75;;;15.63;52.95
12666;BME280;58531;59.050;17.416;2023-06-04T04:00:19;101286.38;;;16.87;48.85
12666;BME280;58531;59.050;17.416;2023-06-04T04:02:46;101288.44;;;16.92;46.96
12666;BME280;58531;59.050;17.416;2023-06-04T04:05:15;101286.97;;;17.06;46.94
12666;BME280;58531;59.050;17.416;2023-06-04T04:07:42;101287.66;;;16.77;47.63
12666;BME280;58531;59.050;17.416;2023-06-04T04:10:09;101294.69;;;17.65;44.82
12666;BME280;58531;59.050;17.416;2023-06-04T04:12:36;101293.31;;;17.55;43.45
12666;BME280;58531;59.050;17.416;2023-06-04T04:15:04;101291.63;;;17.43;43.18
12666;BME280;58531;59.050;17.416;2023-06-04T04:17:32;101297.22;;;17.40;43.92
12666;BME280;58531;59.050;17.416;2023-06-04T04:19:58;101299.88;;;17.25;42.49
12666;BME280;58531;59.050;17.416;2023-06-04T04:22:28;101301.16;;;17.53;41.58
12666;BME280;58531;59.050;17.416;2023-06-04T04:24:56;101314.63;;;17.01;41.48
12666;BME280;58531;59.050;17.416;2023-06-04T04:27:23;101296.78;;;17.18;40.41
12666;BME280;58531;59.050;17.416;2023-06-04T04:29:50;101306.06;;;17.02;40.19
12666;BME280;58531;59.050;17.416;2023-06-04T04:32:25;101314.06;;;17.78;39.64
12666;BME280;58531;59.050;17.416;2023-06-04T04:34:53;101309.41;;;17.93;38.65
12666;BME280;58531;59.050;17.416;2023-06-04T04:37:20;101321.44;;;18.75;37.55
12666;BME280;58531;59.050;17.416;2023-06-04T04:39:49;101323.28;;;18.29;36.82
12666;BME280;58531;59.050;17.416;2023-06-04T04:42:17;101322.19;;;18.07;38.57
12666;BME280;58531;59.050;17.416;2023-06-04T04:44:44;101320.22;;;17.93;37.55
12666;BME280;58531;59.050;17.416;2023-06-04T04:47:13;101314.25;;;17.89;37.36
12666;BME280;58531;59.050;17.416;2023-06-04T04:49:40;101309.06;;;17.42;38.80
12666;BME280;58531;59.050;17.416;2023-06-04T04:52:07;101311.47;;;17.98;37.88
12666;BME280;58531;59.050;17.416;2023-06-04T04:54:34;101312.69;;;17.83;36.90
12666;BME280;58531;59.050;17.416;2023-06-04T04:57:02;101319.56;;;17.98;37.25
12666;BME280;58531;59.050;17.416;2023-06-04T04:59:29;101327.75;;;18.32;35.89
12666;BME280;58531;59.050;17.416;2023-06-04T05:01:56;101312.41;;;18.44;34.60
12666;BME280;58531;59.050;17.416;2023-06-04T05:04:23;101322.38;;;16.84;37.62
12666;BME280;58531;59.050;17.416;2023-06-04T05:06:50;101323.41;;;16.63;39.05
12666;BME280;58531;59.050;17.416;2023-06-04T05:09:17;101330.06;;;17.00;38.79
12666;BME280;58531;59.050;17.416;2023-06-04T05:11:44;101330.09;;;17.15;38.21
12666;BME280;58531;59.050;17.416;2023-06-04T05:14:12;101337.25;;;17.41;37.25
12666;BME280;58531;59.050;17.416;2023-06-04T05:16:39;101331.38;;;17.43;37.08
12666;BME280;58531;59.050;17.416;2023-06-04T05:19:07;101335.63;;;17.73;36.92
12666;BME280;58531;59.050;17.416;2023-06-04T05:21:36;101339.19;;;18.13;35.74
12666;BME280;58531;59.050;17.416;2023-06-04T05:24:03;101335.31;;;17.85;36.26
12666;BME280;58531;59.050;17.416;2023-06-04T05:26:30;101340.03;;;18.19;36.35
12666;BME280;58531;59.050;17.416;2023-06-04T05:28:58;101339.63;;;18.95;34.34
12666;BME280;58531;59.050;17.416;2023-06-04T05:31:27;101354.81;;;19.77;33.70
12666;BME280;58531;59.050;17.416;2023-06-04T05:33:54;101357.69;;;19.68;33.43
12666;BME280;58531;59.050;17.416;2023-06-04T05:36:20;101346.13;;;19.42;32.44
12666;BME280;58531;59.050;17.416;2023-06-04T05:38:47;101346.81;;;18.78;32.95
12666;BME280;58531;59.050;17.416;2023-06-04T05:41:22;101346.81;;;19.94;32.00
12666;BME280;58531;59.050;17.416;2023-06-04T05:43:49;101343.78;;;20.90;30.66
12666;BME280;58531;59.050;17.416;2023-06-04T05:46:16;101348.97;;;21.62;29.06
12666;BME280;58531;59.050;17.416;2023-06-04T05:48:44;101360.19;;;21.23;29.88
12666;BME280;58531;59.050;17.416;2023-06-04T05:51:12;101363.91;;;21.31;29.14
12666;BME280;58531;59.050;17.416;2023-06-04T05:53:39;101373.19;;;21.60;29.01
12666;BME280;58531;59.050;17.416;2023-06-04T05:56:07;101361.31;;;21.96;28.48
12666;BME280;58531;59.050;17.416;2023-06-04T05:58:34;101362.72;;;21.43;27.67
12666;BME280;58531;59.050;17.416;2023-06-04T06:01:01;101361.94;;;20.73;29.60
12666;BME280;58531;59.050;17.416;2023-06-04T06:03:28;101363.31;;;21.90;29.96
12666;BME280;58531;59.050;17.416;2023-06-04T06:05:56;101361.50;;;22.59;27.83
12666;BME280;58531;59.050;17.416;2023-06-04T06:08:25;101372.03;;;22.95;26.93
12666;BME280;58531;59.050;17.416;2023-06-04T06:10:52;101367.19;;;21.51;28.30
12666;BME280;58531;59.050;17.416;2023-06-04T06:13:19;101367.75;;;22.37;27.99
12666;BME280;58531;59.050;17.416;2023-06-04T06:15:46;101373.13;;;22.65;26.25
12666;BME280;58531;59.050;17.416;2023-06-04T06:18:13;101373.34;;;21.46;28.50
12666;BME280;58531;59.050;17.416;2023-06-04T06:20:41;101384.78;;;22.65;27.30
12666;BME280;58531;59.050;17.416;2023-06-04T06:23:10;101378.91;;;21.90;28.03
12666;BME280;58531;59.050;17.416;2023-06-04T06:25:37;101393.22;;;22.29;26.83
12666;BME280;58531;59.050;17.416;2023-06-04T06:28:05;101385.06;;;22.01;27.05
12666;BME280;58531;59.050;17.416;2023-06-04T06:30:32;101388.41;;;22.95;27.07
12666;BME280;58531;59.050;17.416;2023-06-04T06:32:59;101398.66;;;22.56;26.99
12666;BME280;58531;59.050;17.416;2023-06-04T06:35:26;101386.53;;;22.46;26.19
12666;BME280;58531;59.050;17.416;2023-06-04T06:37:53;101386.72;;;22.70;27.21
12666;BME280;58531;59.050;17.416;2023-06-04T06:40:21;101394.09;;;23.54;26.26
12666;BME280;58531;59.050;17.416;2023-06-04T06:42:49;101395.91;;;23.40;26.60
12666;BME280;58531;59.050;17.416;2023-06-04T06:45:17;101392.84;;;23.49;26.03
12666;BME280;58531;59.050;17.416;2023-06-04T06:47:44;101392.91;;;23.44;27.35
12666;BME280;58531;59.050;17.416;2023-06-04T06:50:11;101398.41;;;24.13;25.65
12666;BME280;58531;59.050;17.416;2023-06-04T06:52:38;101393.44;;;23.37;26.46
12666;BME280;58531;59.050;17.416;2023-06-04T06:55:05;101406.31;;;23.77;26.12
12666;BME280;58531;59.050;17.416;2023-06-04T06:57:34;101400.88;;;23.36;26.28
12666;BME280;58531;59.050;17.416;2023-06-04T07:00:00;101413.53;;;23.34;25.79
12666;BME280;58531;59.050;17.416;2023-06-04T07:02:29;101396.34;;;22.82;25.88
12666;BME280;58531;59.050;17.416;2023-06-04T07:04:56;101401.75;;;22.98;26.79
12666;BME280;58531;59.050;17.416;2023-06-04T07:07:23;101399.91;;;22.06;28.96
12666;BME280;58531;59.050;17.416;2023-06-04T07:09:50;101404.06;;;22.73;27.73
12666;BME280;58531;59.050;17.416;2023-06-04T07:12:17;101413.69;;;21.69;28.09
12666;BME280;58531;59.050;17.416;2023-06-04T07:14:45;101407.00;;;20.96;28.68
12666;BME280;58531;59.050;17.416;2023-06-04T07:17:12;101399.13;;;20.98;28.43
12666;BME280;58531;59.050;17.416;2023-06-04T07:19:39;101414.53;;;21.23;28.74
12666;BME280;58531;59.050;17.416;2023-06-04T07:22:06;101416.19;;;21.04;29.04
12666;BME280;58531;59.050;17.416;2023-06-04T07:24:32;101417.72;;;21.16;29.45
12666;BME280;58531;59.050;17.416;2023-06-04T07:26:59;101413.78;;;20.75;28.96
12666;BME280;58531;59.050;17.416;2023-06-04T07:29:26;101424.78;;;21.55;28.14
12666;BME280;58531;59.050;17.416;2023-06-04T07:31:55;101429.34;;;22.13;28.80
12666;BME280;58531;59.050;17.416;2023-06-04T07:34:21;101416.22;;;22.33;27.43
12666;BME280;58531;59.050;17.416;2023-06-04T07:36:48;101426.56;;;21.63;28.22
12666;BME280;58531;59.050;17.416;2023-06-04T07:39:15;101431.78;;;21.83;28.44
12666;BME280;58531;59.050;17.416;2023-06-04T07:41:42;101420.19;;;21.99;27.58
12666;BME280;58531;59.050;17.416;2023-06-04T07:44:09;101425.53;;;21.55;28.59
12666;BME280;58531;59.050;17.416;2023-06-04T07:46:36;101433.19;;;21.57;28.57
12666;BME280;58531;59.050;17.416;2023-06-04T07:49:04;101425.63;;;21.14;28.09
12666;BME280;58531;59.050;17.416;2023-06-04T07:51:31;101433.53;;;21.17;28.86
12666;BME280;58531;59.050;17.416;2023-06-04T07:53:58;101437.59;;;20.24;30.41
12666;BME280;58531;59.050;17.416;2023-06-04T07:56:25;101438.63;;;19.35;31.15
12666;BME280;58531;59.050;17.416;2023-06-04T07:58:52;101434.72;;;19.36;32.07
12666;BME280;58531;59.050;17.416;2023-06-04T08:01:19;101436.00;;;19.86;31.88
12666;BME280;58531;59.050;17.416;2023-06-04T08:03:46;101433.63;;;19.28;31.68
12666;BME280;58531;59.050;17.416;2023-06-04T08:06:15;101430.78;;;19.17;32.81
12666;BME280;58531;59.050;17.416;2023-06-04T08:08:42;101436.59;;;19.10;32.74
12666;BME280;58531;59.050;17.416;2023-06-04T08:11:10;101434.44;;;18.80;33.05
12666;BME280;58531;59.050;17.416;2023-06-04T08:13:38;101438.31;;;18.16;35.30
12666;BME280;58531;59.050;17.416;2023-06-04T08:16:05;101430.72;;;17.15;35.85
12666;BME280;58531;59.050;17.416;2023-06-04T08:18:32;101431.72;;;17.03;37.97
12666;BME280;58531;59.050;17.416;2023-06-04T08:20:59;101437.47;;;17.43;36.99
12666;BME280;58531;59.050;17.416;2023-06-04T08:23:28;101442.84;;;16.96;37.72
12666;BME280;58531;59.050;17.416;2023-06-04T08:25:54;101431.63;;;17.12;37.88
12666;BME280;58531;59.050;17.416;2023-06-04T08:28:22;101432.59;;;17.33;38.26
12666;BME280;58531;59.050;17.416;2023-06-04T08:30:49;101425.16;;;16.95;37.58
12666;BME280;58531;59.050;17.416;2023-06-04T08:33:15;101439.19;;;16.26;38.62
12666;BME280;58531;59.050;17.416;2023-06-04T08:35:42;101442.25;;;15.92;38.93
12666;BME280;58531;59.050;17.416;2023-06-04T08:38:09;101437.75;;;15.98;39.17
12666;BME280;58531;59.050;17.416;2023-06-04T08:40:37;101442.34;;;16.24;38.04
12666;BME280;58531;59.050;17.416;2023-06-04T08:43:04;101446.09;;;16.36;39.53
12666;BME280;58531;59.050;17.416;2023-06-04T08:45:33;101437.03;;;16.57;40.51
12666;BME280;58531;59.050;17.416;2023-06-04T08:48:07;101444.59;;;16.35;38.27
12666;BME280;58531;59.050;17.416;2023-06-04T08:50:37;101446.38;;;16.38;38.61
12666;BME280;58531;59.050;17.416;2023-06-04T08:53:06;101446.66;;;16.40;38.85
12666;BME280;58531;59.050;17.416;2023-06-04T08:55:33;101455.06;;;16.33;38.75
12666;BME280;58531;59.050;17.416;2023-06-04T08:58:02;101459.63;;;16.59;38.01
12666;BME280;58531;59.050;17.416;2023-06-04T09:00:33;101454.31;;;16.32;38.44
12666;BME280;58531;59.050;17.416;2023-06-04T09:03:01;101447.03;;;16.06;39.85
12666;BME280;58531;59.050;17.416;2023-06-04T09:05:29;101452.63;;;16.53;39.54
12666;BME280;58531;59.050;17.416;2023-06-04T09:07:57;101445.81;;;16.98;38.14
12666;BME280;58531;59.050;17.416;2023-06-04T09:10:29;101448.13;;;17.38;38.25
12666;BME280;58531;59.050;17.416;2023-06-04T09:12:59;101443.88;;;16.99;37.95
12666;BME280;58531;59.050;17.416;2023-06-04T09:15:29;101449.47;;;16.86;38.03
12666;BME280;58531;59.050;17.416;2023-06-04T09:17:56;101444.97;;;17.16;37.85
12666;BME280;58531;59.050;17.416;2023-06-04T09:20:23;101446.09;;;17.33;37.60
12666;BME280;58531;59.050;17.416;2023-06-04T09:22:51;101448.75;;;17.09;37.64
12666;BME280;58531;59.050;17.416;2023-06-04T09:25:22;101451.53;;;16.59;37.38
12666;BME280;58531;59.050;17.416;2023-06-04T09:27:50;101455.28;;;16.61;37.66
12666;BME280;58531;59.050;17.416;2023-06-04T09:30:17;101455.63;;;16.55;38.28
12666;BME280;58531;59.050;17.416;2023-06-04T09:32:46;101458.38;;;16.78;37.84
12666;BME280;58531;59.050;17.416;2023-06-04T09:35:14;101453.09;;;16.83;37.42
12666;BME280;58531;59.050;17.416;2023-06-04T09:37:41;101450.53;;;16.48;38.12
12666;BME280;58531;59.050;17.416;2023-06-04T09:40:09;101448.78;;;16.36;39.33
12666;BME280;58531;59.050;17.416;2023-06-04T09:42:43;101452.31;;;16.83;38.42
12666;BME280;58531;59.050;17.416;2023-06-04T09:45:10;101455.94;;;17.12;37.06
12666;BME280;58531;59.050;17.416;2023-06-04T09:47:43;101455.84;;;16.65;37.62
12666;BME280;58531;59.050;17.416;2023-06-04T09:50:12;101458.03;;;16.53;37.84
12666;BME280;58531;59.050;17.416;2023-06-04T09:52:39;101452.38;;;16.33;38.56
12666;BME280;58531;59.050;17.416;2023-06-04T09:55:15;101457.44;;;16.49;38.43
12666;BME280;58531;59.050;17.416;2023-06-04T09:57:46;101454.13;;;16.54;37.73
12666;BME280;58531;59.050;17.416;2023-06-04T10:00:16;101458.47;;;16.83;38.25
12666;BME280;58531;59.050;17.416;2023-06-04T10:02:44;101451.38;;;16.62;38.35
12666;BME280;58531;59.050;17.416;2023-06-04T10:05:14;101447.28;;;16.35;38.15
12666;BME280;58531;59.050;17.416;2023-06-04T10:07:43;101448.16;;;16.32;38.30
12666;BME280;58531;59.050;17.416;2023-06-04T10:10:14;101446.88;;;16.59;38.58
12666;BME280;58531;59.050;17.416;2023-06-04T10:12:42;101448.91;;;16.82;38.26
12666;BME280;58531;59.050;17.416;2023-06-04T10:15:11;101452.66;;;16.26;38.72
12666;BME280;58531;59.050;17.416;2023-06-04T10:17:38;101449.50;;;16.36;39.45
12666;BME280;58531;59.050;17.416;2023-06-04T10:20:07;101448.59;;;16.48;37.88
12666;BME280;58531;59.050;17.416;2023-06-04T10:22:37;101454.06;;;16.62;38.04
12666;BME280;58531;59.050;17.416;2023-06-04T10:25:05;101453.13;;;16.74;39.41
12666;BME280;58531;59.050;17.416;2023-06-04T10:27:33;101456.72;;;16.71;37.26
12666;BME280;58531;59.050;17.416;2023-06-04T10:30:01;101451.19;;;16.34;38.67
12666;BME280;58531;59.050;17.416;2023-06-04T10:32:29;101442.53;;;16.62;38.67
12666;BME280;58531;59.050;17.416;2023-06-04T10:34:56;101460.28;;;16.86;38.83
12666;BME280;58531;59.050;17.416;2023-06-04T10:37:24;101453.31;;;17.03;37.85
12666;BME280;58531;59.050;17.416;2023-06-04T10:39:54;101448.91;;;16.82;37.62
12666;BME280;58531;59.050;17.416;2023-06-04T10:42:21;101458.03;;;17.08;37.73
12666;BME280;58531;59.050;17.416;2023-06-04T10:44:51;101458.22;;;17.28;36.09
12666;BME280;58531;59.050;17.416;2023-06-04T10:47:19;101450.56;;;16.80;38.32
12666;BME280;58531;59.050;17.416;2023-06-04T10:49:46;101450.78;;;16.58;39.62
12666;BME280;58531;59.050;17.416;2023-06-04T10:52:13;101444.38;;;16.56;37.93
12666;BME280;58531;59.050;17.416;2023-06-04T10:54:41;101452.97;;;16.78;37.77
12666;BME280;58531;59.050;17.416;2023-06-04T10:57:13;101452.53;;;16.29;37.95
12666;BME280;58531;59.050;17.416;2023-06-04T10:59:42;101463.16;;;16.24;41.55
12666;BME280;58531;59.050;17.416;2023-06-04T11:02:19;101449.59;;;16.59;38.64
12666;BME280;58531;59.050;17.416;2023-06-04T11:04:46;101452.44;;;16.97;37.95
12666;BME280;58531;59.050;17.416;2023-06-04T11:07:13;101458.09;;;17.55;37.86
12666;BME280;58531;59.050;17.416;2023-06-04T11:09:48;101459.03;;;18.48;39.99
12666;BME280;58531;59.050;17.416;2023-06-04T11:12:17;101456.41;;;18.10;34.39
12666;BME280;58531;59.050;17.416;2023-06-04T11:14:53;101450.41;;;17.77;35.97
12666;BME280;58531;59.050;17.416;2023-06-04T11:17:20;101451.19;;;17.54;38.22
12666;BME280;58531;59.050;17.416;2023-06-04T11:19:47;101446.28;;;17.67;37.02
12666;BME280;58531;59.050;17.416;2023-06-04T11:22:14;101453.09;;;17.39;37.81
12666;BME280;58531;59.050;17.416;2023-06-04T11:24:41;101458.19;;;17.14;38.13
12666;BME280;58531;59.050;17.416;2023-06-04T11:27:08;101455.78;;;17.16;37.69
12666;BME280;58531;59.050;17.416;2023-06-04T11:29:36;101459.06;;;17.20;40.08
12666;BME280;58531;59.050;17.416;2023-06-04T11:32:04;101452.19;;;16.86;37.00
12666;BME280;58531;59.050;17.416;2023-06-04T11:34:31;101462.09;;;16.80;38.09
12666;BME280;58531;59.050;17.416;2023-06-04T11:37:07;101451.53;;;16.59;40.74
12666;BME280;58531;59.050;17.416;2023-06-04T11:39:35;101447.72;;;16.74;40.61
12666;BME280;58531;59.050;17.416;2023-06-04T11:42:05;101452.03;;;17.60;39.46
12666;BME280;58531;59.050;17.416;2023-06-04T11:44:33;101457.63;;;18.09;37.03
12666;BME280;58531;59.050;17.416;2023-06-04T11:47:04;101454.88;;;17.80;36.13
12666;BME280;58531;59.050;17.416;2023-06-04T11:49:33;101455.09;;;17.91;36.21
12666;BME280;58531;59.050;17.416;2023-06-04T11:52:01;101461.75;;;17.67;37.88
12666;BME280;58531;59.050;17.416;2023-06-04T11:54:28;101460.34;;;17.33;37.30
12666;BME280;58531;59.050;17.416;2023-06-04T11:56:55;101451.03;;;17.34;39.00
12666;BME280;58531;59.050;17.416;2023-06-04T11:59:23;101454.72;;;17.13;38.89
12666;BME280;58531;59.050;17.416;2023-06-04T12:01:50;101453.75;;;16.69;38.81
12666;BME280;58531;59.050;17.416;2023-06-04T12:04:20;101459.63;;;16.59;39.85
12666;BME280;58531;59.050;17.416;2023-06-04T12:06:51;101451.72;;;16.88;39.08
12666;BME280;58531;59.050;17.416;2023-06-04T12:09:22;101463.88;;;16.83;38.75
12666;BME280;58531;59.050;17.416;2023-06-04T12:11:49;101458.84;;;17.32;36.12
12666;BME280;58531;59.050;17.416;2023-06-04T12:14:17;101461.97;;;17.92;39.10
12666;BME280;58531;59.050;17.416;2023-06-04T12:16:54;101465.22;;;17.82;36.98
12666;BME280;58531;59.050;17.416;2023-06-04T12:19:23;101464.50;;;17.11;37.56
12666;BME280;58531;59.050;17.416;2023-06-04T12:22:01;101470.78;;;16.84;37.97
12666;BME280;58531;59.050;17.416;2023-06-04T12:24:29;101466.81;;;16.62;40.44
12666;BME280;58531;59.050;17.416;2023-06-04T12:27:03;101468.50;;;16.51;38.85
12666;BME280;58531;59.050;17.416;2023-06-04T12:29:30;101467.91;;;16.56;41.46
12666;BME280;58531;59.050;17.416;2023-06-04T12:32:04;101467.31;;;17.16;37.20
12666;BME280;58531;59.050;17.416;2023-06-04T12:34:34;101464.53;;;17.72;36.51
12666;BME280;58531;59.050;17.416;2023-06-04T12:37:01;101462.91;;;18.03;35.81
12666;BME280;58531;59.050;17.416;2023-06-04T12:39:31;101465.00;;;18.52;33.90
12666;BME280;58531;59.050;17.416;2023-06-04T12:41:58;101463.50;;;18.51;34.33
12666;BME280;58531;59.050;17.416;2023-06-04T12:44:25;101468.91;;;18.65;35.44
12666;BME280;58531;59.050;17.416;2023-06-04T12:46:52;101473.28;;;18.77;35.95